Date,TemperatureHighF,TemperatureAvgF,TemperatureLowF,DewpointHighF,DewpointAvgF,DewpointLowF,HumidityHigh,HumidityAvg,HumidityLow,PressureMaxIn,PressureMinIn,WindSpeedMaxMPH,WindSpeedAvgMPH,GustSpeedMaxMPH,PrecipitationSumIn
2013-12-1,49.6,45.9,40.7,47.5,44.0,34.1,99,93,76,30.07,29.71,6,2,10,0.59
2013-12-2,40.5,33.7,28.2,35.5,29.7,17.2,97,86,62,30.18,29.76,5,1,7,0.05
2013-12-3,35.0,30.1,27.0,18.9,16.2,14.2,64,56,49,30.39,30.18,4,2,12,0.00
2013-12-4,33.8,28.2,23.3,14.6,12.2,9.3,62,51,39,30.42,30.37,4,1,7,0.00
2013-12-5,30.9,25.5,21.6,16.6,13.3,6.7,72,60,47,30.38,30.26,3,1,8,0.00
2013-12-6,26.4,21.0,17.9,6.7,1.2,-2.5,49,42,32,30.40,30.28,4,2,15,0.00
2013-12-7,26.4,18.6,13.3,5.4,0.7,-2.5,69,46,34,30.47,30.38,4,1,5,0.00
2013-12-8,28.3,21.5,13.1,14.4,11.0,5.0,74,64,48,30.61,30.46,1,0,3,0.00
2013-12-9,27.4,25.6,21.5,25.6,21.4,14.4,93,84,71,30.61,30.51,1,0,2,0.00
2013-12-10,31.3,29.6,27.4,30.0,28.2,25.6,96,94,91,30.53,30.47,1,0,3,0.00
2013-12-11,36.6,32.6,30.7,31.6,29.6,28.3,93,89,80,30.47,30.20,1,0,3,0.03
2013-12-12,37.3,33.5,29.3,36.5,31.7,27.5,98,93,87,30.19,30.05,1,0,2,0.28
2013-12-13,41.1,38.7,36.1,40.8,38.3,35.6,99,99,98,30.46,30.16,1,0,2,0.28
2013-12-14,45.9,41.8,38.5,44.0,41.1,38.2,99,98,92,30.47,30.33,4,0,6,0.02
2013-12-15,48.0,44.3,38.5,46.1,43.5,37.7,98,97,93,30.45,30.30,3,1,10,0.10
2013-12-16,45.5,39.2,34.4,43.3,38.4,33.9,99,97,91,30.52,30.30,1,0,2,0.01
2013-12-17,40.6,37.0,33.5,39.5,36.5,33.0,99,98,95,30.30,30.09,3,0,5,0.05
2013-12-18,41.0,37.0,29.3,39.9,32.0,21.6,97,82,65,30.28,30.05,5,1,11,0.01
2013-12-19,33.6,29.9,26.3,27.0,21.9,19.0,93,72,57,30.40,30.24,1,0,5,0.00
2013-12-20,32.9,30.3,28.4,31.9,29.3,26.9,98,96,93,30.23,29.76,1,0,2,0.00
2013-12-21,35.8,33.1,31.4,35.5,32.6,30.9,99,98,97,30.21,29.91,0,0,1,0.46
2013-12-22,37.7,35.5,33.4,37.4,35.2,33.1,99,99,99,30.33,30.20,0,0,1,1.20
2013-12-23,48.8,43.1,37.1,46.7,40.8,36.6,100,92,75,30.51,30.09,8,2,11,0.54
2013-12-24,43.8,38.8,35.0,40.6,37.4,34.2,99,95,83,30.63,30.51,2,0,3,0.00
2013-12-25,39.0,35.4,30.3,36.3,34.2,29.8,98,95,88,30.58,30.44,0,0,1,0.02
2013-12-26,46.6,39.7,35.6,44.0,38.7,35.1,99,96,87,30.44,30.24,0,0,1,0.17
2013-12-27,45.4,40.0,35.0,44.9,39.1,34.5,99,97,91,30.36,30.05,4,1,7,0.48
2013-12-28,42.9,39.9,35.6,41.8,39.3,34.8,99,98,94,30.55,30.36,1,0,1,0.00
2013-12-29,41.9,39.2,37.4,40.4,38.4,37.1,99,97,90,30.51,30.35,1,0,2,0.02
2013-12-30,44.6,40.8,38.7,42.2,39.6,37.7,98,95,90,30.35,30.13,1,0,2,0.01
2013-12-31,43.1,41.7,40.2,42.8,41.3,39.7,99,99,97,30.42,30.20,2,0,8,0.09